createdAt,value
2022-11-15T00:01:35.157Z,7.90
2022-11-15T00:04:20.906Z,7.80
2022-11-15T00:07:06.508Z,7.80
2022-11-15T00:09:51.774Z,7.70
2022-11-15T00:12:37.006Z,7.70
2022-11-15T00:15:22.419Z,7.70
2022-11-15T00:18:13.776Z,7.60
2022-11-15T00:21:07.121Z,7.60
2022-11-15T00:23:52.707Z,7.60
2022-11-15T00:26:38.114Z,7.60
2022-11-15T00:29:23.742Z,7.60
2022-11-15T00:32:09.104Z,7.60
2022-11-15T00:34:54.253Z,7.50
2022-11-15T00:37:39.505Z,7.50
2022-11-15T00:40:26.431Z,7.50
2022-11-15T00:43:11.777Z,7.40
2022-11-15T00:45:57.300Z,7.40
2022-11-15T00:48:42.536Z,7.30
2022-11-15T00:51:28.272Z,7.30
2022-11-15T00:54:13.803Z,7.30
2022-11-15T00:56:59.136Z,7.20
2022-11-15T00:59:44.632Z,7.20
2022-11-15T01:02:30.119Z,7.20
2022-11-15T01:05:15.471Z,7.20
2022-11-15T01:08:00.848Z,7.10
2022-11-15T01:10:46.428Z,7.10
2022-11-15T01:13:36.848Z,7.10
2022-11-15T01:16:22.767Z,7.10
2022-11-15T01:19:07.910Z,7.00
2022-11-15T01:21:53.486Z,7.00
2022-11-15T01:24:38.944Z,7.00
2022-11-15T01:27:24.548Z,7.00
2022-11-15T01:30:10.108Z,7.00
2022-11-15T01:32:55.288Z,6.90
2022-11-15T01:35:41.237Z,6.90
2022-11-15T01:38:26.328Z,6.80
2022-11-15T01:41:19.918Z,6.80
2022-11-15T01:44:43.193Z,6.80
2022-11-15T01:47:41.628Z,6.80
2022-11-15T01:50:31.722Z,6.90
2022-11-15T01:53:18.393Z,6.90
2022-11-15T01:56:11.094Z,6.90
2022-11-15T01:58:58.365Z,6.90
2022-11-15T02:01:44.189Z,6.90
2022-11-15T02:04:33.304Z,6.90
2022-11-15T02:07:22.383Z,7.00
2022-11-15T02:10:11.819Z,6.90
2022-11-15T02:12:57.963Z,7.00
2022-11-15T02:16:14.142Z,7.00
2022-11-15T02:19:15.556Z,7.00
2022-11-15T02:22:33.420Z,7.00
2022-11-15T02:25:47.971Z,7.00
2022-11-15T02:28:36.041Z,7.00
2022-11-15T02:31:29.309Z,7.00
2022-11-15T02:34:41.098Z,7.00
2022-11-15T02:37:48.265Z,7.00
2022-11-15T02:40:54.173Z,7.10
2022-11-15T02:44:03.357Z,7.10
2022-11-15T02:47:14.579Z,7.10
2022-11-15T02:50:05.023Z,7.10
2022-11-15T02:52:51.739Z,7.10
2022-11-15T02:55:47.593Z,7.10
2022-11-15T02:58:45.661Z,7.10
2022-11-15T03:01:46.419Z,7.10
2022-11-15T03:05:01.053Z,7.10
2022-11-15T03:08:10.514Z,7.10
2022-11-15T03:11:16.210Z,7.10
2022-11-15T03:14:33.060Z,7.10
2022-11-15T03:17:28.116Z,7.10
2022-11-15T03:20:16.775Z,7.10
2022-11-15T03:23:06.900Z,7.10
2022-11-15T03:25:54.488Z,7.10
2022-11-15T03:28:45.166Z,7.20
2022-11-15T03:31:50.696Z,7.10
2022-11-15T03:34:46.620Z,7.20
2022-11-15T03:37:55.630Z,7.20
2022-11-15T03:40:52.165Z,7.20
2022-11-15T03:43:52.793Z,7.20
2022-11-15T03:46:45.419Z,7.20
2022-11-15T03:49:35.294Z,7.20
2022-11-15T03:52:22.262Z,7.20
2022-11-15T03:55:10.074Z,7.30
2022-11-15T03:57:59.562Z,7.30
2022-11-15T04:00:44.873Z,7.30
2022-11-15T04:03:30.934Z,7.30
2022-11-15T04:06:16.751Z,7.30
2022-11-15T04:09:02.275Z,7.30
2022-11-15T04:11:47.356Z,7.30
2022-11-15T04:14:32.956Z,7.30
2022-11-15T04:17:18.053Z,7.30
2022-11-15T04:20:24.471Z,7.30
2022-11-15T04:23:33.902Z,7.30
2022-11-15T04:26:22.807Z,7.30
2022-11-15T04:29:26.707Z,7.30
2022-11-15T04:32:11.995Z,7.30
2022-11-15T04:34:57.360Z,7.30
2022-11-15T04:37:47.955Z,7.30
2022-11-15T04:40:35.052Z,7.30
2022-11-15T04:43:20.591Z,7.30
2022-11-15T04:46:06.180Z,7.30
2022-11-15T04:48:58.660Z,7.40
2022-11-15T04:51:45.399Z,7.40
2022-11-15T04:54:30.959Z,7.40
2022-11-15T04:57:16.579Z,7.40
2022-11-15T05:00:04.629Z,7.30
2022-11-15T05:03:08.472Z,7.30
2022-11-15T05:05:54.092Z,7.30
2022-11-15T05:08:39.297Z,7.30
2022-11-15T05:11:25.380Z,7.20
2022-11-15T05:14:11.129Z,7.20
2022-11-15T05:16:56.471Z,7.20
2022-11-15T05:19:42.043Z,7.20
2022-11-15T05:22:28.264Z,7.20
2022-11-15T05:25:13.722Z,7.20
2022-11-15T05:27:59.339Z,7.20
2022-11-15T05:30:44.448Z,7.20
2022-11-15T05:33:30.539Z,7.20
2022-11-15T05:36:19.367Z,7.20
2022-11-15T05:39:07.321Z,7.20
2022-11-15T05:42:00.417Z,7.20
2022-11-15T05:44:49.533Z,7.10
2022-11-15T05:47:36.863Z,7.10
2022-11-15T05:50:22.359Z,7.10
2022-11-15T05:53:08.427Z,7.10
2022-11-15T05:55:53.778Z,7.00
2022-11-15T05:58:39.128Z,7.00
2022-11-15T06:01:26.549Z,7.00
2022-11-15T06:04:12.020Z,7.00
2022-11-15T06:06:58.859Z,6.90
2022-11-15T06:09:44.090Z,6.90
2022-11-15T06:12:29.568Z,6.90
2022-11-15T06:15:14.929Z,6.90
2022-11-15T06:18:00.923Z,6.80
2022-11-15T06:20:46.407Z,6.80
2022-11-15T06:23:36.144Z,6.80
2022-11-15T06:26:21.393Z,6.80
2022-11-15T06:29:06.946Z,6.80
2022-11-15T06:31:52.234Z,6.90
2022-11-15T06:34:37.807Z,6.80
2022-11-15T06:37:22.965Z,6.80
2022-11-15T06:40:10.232Z,6.80
2022-11-15T06:43:00.253Z,6.90
2022-11-15T06:45:45.539Z,6.90
2022-11-15T06:48:32.013Z,6.90
2022-11-15T06:51:17.352Z,6.90
2022-11-15T06:54:02.983Z,6.90
2022-11-15T06:56:48.750Z,7.00
2022-11-15T06:59:40.211Z,7.00
2022-11-15T07:02:25.974Z,7.10
2022-11-15T07:05:12.060Z,7.10
2022-11-15T07:07:58.797Z,7.10
2022-11-15T07:10:43.912Z,7.20
2022-11-15T07:13:31.589Z,7.20
2022-11-15T07:16:17.217Z,7.30
2022-11-15T07:19:02.584Z,7.30
2022-11-15T07:21:47.857Z,7.40
2022-11-15T07:24:33.297Z,7.40
2022-11-15T07:27:18.852Z,7.50
2022-11-15T07:30:05.531Z,7.50
2022-11-15T07:32:55.523Z,7.50
2022-11-15T07:35:40.846Z,7.60
2022-11-15T07:38:26.455Z,7.70
2022-11-15T07:41:11.833Z,7.70
2022-11-15T07:43:58.610Z,7.80
2022-11-15T07:46:43.997Z,7.90
2022-11-15T07:49:29.203Z,7.90
2022-11-15T07:52:14.729Z,8.00
2022-11-15T07:55:00.322Z,8.10
2022-11-15T07:57:45.791Z,8.20
2022-11-15T08:00:31.926Z,8.30
2022-11-15T08:03:18.561Z,8.30
2022-11-15T08:06:05.356Z,8.40
2022-11-15T08:08:50.910Z,8.40
2022-11-15T08:11:36.515Z,8.50
2022-11-15T08:14:23.115Z,8.50
2022-11-15T08:17:08.746Z,8.50
2022-11-15T08:19:54.039Z,8.50
2022-11-15T08:22:39.464Z,8.50
2022-11-15T08:25:27.277Z,8.60
2022-11-15T08:28:12.885Z,8.70
2022-11-15T08:30:58.325Z,8.70
2022-11-15T08:33:44.057Z,8.80
2022-11-15T08:36:36.876Z,8.80
2022-11-15T08:39:27.189Z,9.00
2022-11-15T08:42:18.551Z,9.00
2022-11-15T08:45:05.402Z,9.10
2022-11-15T08:47:54.251Z,9.20
2022-11-15T08:50:40.346Z,9.30
2022-11-15T08:53:25.690Z,9.30
2022-11-15T08:56:13.138Z,9.40
2022-11-15T08:58:58.366Z,9.50
2022-11-15T09:01:44.101Z,9.60
2022-11-15T09:04:29.469Z,9.60
2022-11-15T09:07:15.227Z,9.80
2022-11-15T09:10:00.874Z,9.80
2022-11-15T09:12:49.293Z,9.90
2022-11-15T09:15:35.094Z,10.00
2022-11-15T09:18:23.119Z,10.00
2022-11-15T09:21:08.393Z,10.10
2022-11-15T09:23:53.935Z,10.20
2022-11-15T09:26:39.316Z,10.20
2022-11-15T09:29:24.749Z,10.30
2022-11-15T09:32:10.466Z,10.30
2022-11-15T09:34:55.747Z,10.40
2022-11-15T09:37:41.405Z,10.40
2022-11-15T09:40:27.326Z,10.40
2022-11-15T09:43:44.663Z,10.50
2022-11-15T09:46:42.252Z,10.50
2022-11-15T09:49:46.703Z,10.70
2022-11-15T09:52:21.766Z,10.70
2022-11-15T09:54:53.930Z,10.80
2022-11-15T09:57:23.092Z,10.80
2022-11-15T10:00:45.930Z,10.80
2022-11-15T10:03:12.494Z,10.90
2022-11-15T10:05:50.362Z,11.00
2022-11-15T10:08:52.515Z,11.00
2022-11-15T10:11:40.338Z,11.10
2022-11-15T10:14:12.743Z,11.10
2022-11-15T10:17:00.701Z,11.20
2022-11-15T10:19:50.332Z,11.20
2022-11-15T10:22:30.488Z,11.30
2022-11-15T10:25:13.661Z,11.30
2022-11-15T10:27:42.609Z,11.30
2022-11-15T10:30:15.783Z,11.40
2022-11-15T10:32:43.658Z,11.40
2022-11-15T10:35:31.013Z,11.40
2022-11-15T10:38:09.629Z,11.50
2022-11-15T10:40:37.609Z,11.50
2022-11-15T10:43:22.917Z,11.60
2022-11-15T10:45:50.898Z,11.60
2022-11-15T10:48:24.717Z,11.70
2022-11-15T10:50:53.771Z,11.70
2022-11-15T10:53:26.474Z,11.80
2022-11-15T10:55:56.831Z,11.70
2022-11-15T10:58:35.493Z,11.70
2022-11-15T11:01:23.688Z,11.70
2022-11-15T11:04:09.253Z,11.70
2022-11-15T11:07:00.023Z,11.70
2022-11-15T11:09:45.171Z,11.80
2022-11-15T11:12:12.881Z,11.80
2022-11-15T11:14:40.774Z,11.80
2022-11-15T11:17:28.697Z,11.90
2022-11-15T11:20:25.283Z,11.90
2022-11-15T11:23:19.651Z,11.90
2022-11-15T11:26:06.447Z,12.00
2022-11-15T11:28:36.265Z,12.00
2022-11-15T11:31:09.210Z,12.00
2022-11-15T11:33:49.844Z,12.00
2022-11-15T11:36:32.686Z,12.00
2022-11-15T11:39:16.886Z,12.10
2022-11-15T11:42:27.238Z,12.10
2022-11-15T11:45:06.587Z,12.10
2022-11-15T11:47:40.253Z,12.10
2022-11-15T11:50:13.667Z,12.20
2022-11-15T11:53:04.427Z,12.20
2022-11-15T11:55:44.051Z,12.20
2022-11-15T11:58:43.909Z,12.20
2022-11-15T12:01:28.456Z,12.30
2022-11-15T12:04:17.516Z,12.30
2022-11-15T12:07:10.085Z,12.30
2022-11-15T12:09:55.454Z,12.30
2022-11-15T12:12:47.845Z,12.40
2022-11-15T12:15:23.269Z,12.40
2022-11-15T12:17:50.458Z,12.40
2022-11-15T12:20:26.036Z,12.40
2022-11-15T12:23:05.958Z,12.40
2022-11-15T12:26:08.612Z,12.40
2022-11-15T12:29:04.821Z,12.40
2022-11-15T12:31:35.135Z,12.30
2022-11-15T12:34:14.192Z,12.40
2022-11-15T12:36:44.420Z,12.40
2022-11-15T12:39:12.641Z,12.30
2022-11-15T12:41:41.757Z,12.30
2022-11-15T12:44:14.680Z,12.30
2022-11-15T12:46:41.584Z,12.30
2022-11-15T12:49:26.551Z,12.30
2022-11-15T12:51:59.365Z,12.30
2022-11-15T12:54:27.526Z,12.30
2022-11-15T12:57:09.246Z,12.40
2022-11-15T12:59:58.717Z,12.40
2022-11-15T13:02:42.617Z,12.40
2022-11-15T13:05:24.283Z,12.40
2022-11-15T13:07:50.980Z,12.50
2022-11-15T13:10:17.697Z,12.40
2022-11-15T13:12:47.280Z,12.50
2022-11-15T13:15:14.043Z,12.50
2022-11-15T13:17:44.570Z,12.50
2022-11-15T13:20:21.770Z,12.50
2022-11-15T13:23:12.706Z,12.50
2022-11-15T13:25:57.761Z,12.60
2022-11-15T13:28:46.269Z,12.50
2022-11-15T13:31:34.677Z,12.60
2022-11-15T13:34:44.173Z,12.60
2022-11-15T13:37:02.293Z,12.60
2022-11-15T13:39:31.927Z,12.60
2022-11-15T13:41:59.768Z,12.50
2022-11-15T13:44:29.590Z,12.60
2022-11-15T13:47:15.755Z,12.50
2022-11-15T13:49:43.332Z,12.50
2022-11-15T13:52:15.139Z,12.50
2022-11-15T13:55:05.149Z,12.50
2022-11-15T13:57:49.627Z,12.50
2022-11-15T14:00:39.823Z,12.50
2022-11-15T14:03:48.110Z,12.40
2022-11-15T14:06:22.572Z,12.40
2022-11-15T14:09:27.693Z,12.40
2022-11-15T14:11:56.558Z,12.40
2022-11-15T14:14:26.121Z,12.40
2022-11-15T14:16:56.071Z,12.40
2022-11-15T14:19:22.771Z,12.40
2022-11-15T14:22:29.220Z,12.50
2022-11-15T14:25:19.986Z,12.50
2022-11-15T14:28:08.312Z,12.50
2022-11-15T14:30:35.366Z,12.50
2022-11-15T14:33:02.243Z,12.50
2022-11-15T14:35:29.319Z,12.50
2022-11-15T14:37:56.089Z,12.50
2022-11-15T14:40:23.481Z,12.50
2022-11-15T14:42:50.840Z,12.40
2022-11-15T14:45:20.177Z,12.50
2022-11-15T14:47:47.852Z,12.50
2022-11-15T14:50:19.686Z,12.40
2022-11-15T14:52:47.263Z,12.40
2022-11-15T14:55:37.086Z,12.40
2022-11-15T14:58:05.579Z,12.30
2022-11-15T15:04:00.427Z,12.30
2022-11-15T17:57:02.255Z,11.30
2022-11-15T20:05:36.430Z,11.10
2022-11-15T20:20:12.663Z,11.20
2022-11-15T21:04:38.819Z,11.00
2022-11-15T21:19:32.642Z,11.00
2022-11-15T21:22:29.182Z,11.00
2022-11-15T21:24:59.492Z,11.00
2022-11-15T21:28:10.851Z,11.00
2022-11-15T21:35:00.849Z,11.00
2022-11-15T21:48:58.076Z,11.00
2022-11-15T22:00:09.967Z,10.90
2022-11-15T22:19:40.394Z,11.00
2022-11-15T22:22:01.098Z,10.90
2022-11-15T22:24:28.086Z,10.90
2022-11-15T22:26:54.869Z,10.90
2022-11-15T22:32:28.158Z,10.90
2022-11-15T22:34:55.169Z,10.90
2022-11-15T22:37:22.131Z,10.90
2022-11-15T22:40:15.123Z,10.90
2022-11-15T22:42:43.224Z,10.90
2022-11-15T22:45:22.144Z,10.90
2022-11-15T22:47:49.327Z,10.90
2022-11-15T22:50:16.676Z,10.90
2022-11-15T22:52:43.627Z,10.80
2022-11-15T22:55:10.586Z,10.90
2022-11-15T22:57:40.678Z,10.80
2022-11-15T23:00:12.001Z,10.80
2022-11-15T23:02:39.206Z,10.80
2022-11-15T23:05:06.636Z,10.80
2022-11-15T23:07:34.171Z,10.80
2022-11-15T23:10:19.802Z,10.80
2022-11-15T23:13:05.564Z,10.80
2022-11-15T23:15:52.354Z,10.80
2022-11-15T23:18:19.618Z,10.80
2022-11-15T23:20:46.693Z,10.70
2022-11-15T23:23:13.933Z,10.80
2022-11-15T23:25:40.949Z,10.80
2022-11-15T23:28:08.028Z,10.80
2022-11-15T23:30:54.821Z,10.70
2022-11-15T23:33:40.367Z,10.70
2022-11-15T23:36:07.862Z,10.70
2022-11-15T23:38:38.152Z,10.70
2022-11-15T23:41:06.105Z,10.70
2022-11-15T23:43:33.041Z,10.70
2022-11-15T23:46:03.205Z,10.70
2022-11-15T23:48:30.251Z,10.70
2022-11-15T23:50:57.193Z,10.70
2022-11-15T23:53:24.117Z,10.70
2022-11-15T23:56:01.891Z,10.70
2022-11-15T23:58:30.932Z,10.70
